sensor_id;sensor_type;location;lat;lon;timestamp;temperature;humidity
7684;DHT22;3884;48.616;12.872;2024-01-06T00:01:04;4.30;99.90
7684;DHT22;3884;48.616;12.872;2024-01-06T00:03:31;4.30;99.90
7684;DHT22;3884;48.616;12.872;2024-01-06T00:05:58;4.20;99.90
7684;DHT22;3884;48.616;12.872;2024-01-06T00:08:26;4.20;99.90
7684;DHT22;3884;48.616;12.872;2024-01-06T00:10:54;4.20;99.90
7684;DHT22;3884;48.616;12.872;2024-01-06T00:13:23;4.30;99.90
7684;DHT22;3884;48.616;12.872;2024-01-06T00:15:49;4.20;99.90
7684;DHT22;3884;48.616;12.872;2024-01-06T00:18:19;4.20;99.90
7684;DHT22;3884;48.616;12.872;2024-01-06T00:20:47;4.30;99.90
7684;DHT22;3884;48.616;12.872;2024-01-06T00:23:15;4.30;99.90
7684;DHT22;3884;48.616;12.872;2024-01-06T00:25:42;4.40;99.90
7684;DHT22;3884;48.616;12.872;2024-01-06T00:28:09;4.30;99.90
7684;DHT22;3884;48.616;12.872;2024-01-06T00:30:37;4.30;99.90
7684;DHT22;3884;48.616;12.872;2024-01-06T00:33:04;4.30;99.90
7684;DHT22;3884;48.616;12.872;2024-01-06T00:35:33;4.30;99.90
7684;DHT22;3884;48.616;12.872;2024-01-06T00:38:00;4.30;99.90
7684;DHT22;3884;48.616;12.872;2024-01-06T00:40:28;4.30;99.90
7684;DHT22;3884;48.616;12.872;2024-01-06T00:42:55;4.40;99.90
7684;DHT22;3884;48.616;12.872;2024-01-06T00:45:22;4.40;99.90
7684;DHT22;3884;48.616;12.872;2024-01-06T00:47:49;4.40;99.90
7684;DHT22;3884;48.616;12.872;2024-01-06T00:50:18;4.40;99.90
7684;DHT22;3884;48.616;12.872;2024-01-06T00:52:48;4.40;99.90
7684;DHT22;3884;48.616;12.872;2024-01-06T00:55:18;4.30;99.90
7684;DHT22;3884;48.616;12.872;2024-01-06T00:58:13;4.40;99.90
7684;DHT22;3884;48.616;12.872;2024-01-06T01:00:40;4.40;99.90
7684;DHT22;3884;48.616;12.872;2024-01-06T01:03:22;4.40;99.90
7684;DHT22;3884;48.616;12.872;2024-01-06T01:05:50;4.50;99.90
7684;DHT22;3884;48.616;12.872;2024-01-06T01:08:19;4.50;99.90
7684;DHT22;3884;48.616;12.872;2024-01-06T01:10:50;4.60;99.90
7684;DHT22;3884;48.616;12.872;2024-01-06T01:13:19;4.50;99.90
7684;DHT22;3884;48.616;12.872;2024-01-06T01:15:48;4.40;99.90
7684;DHT22;3884;48.616;12.872;2024-01-06T01:18:17;4.40;99.90
7684;DHT22;3884;48.616;12.872;2024-01-06T01:20:46;4.50;99.90
7684;DHT22;3884;48.616;12.872;2024-01-06T01:23:16;5.10;99.90
7684;DHT22;3884;48.616;12.872;2024-01-06T01:25:47;4.30;99.90
7684;DHT22;3884;48.616;12.872;2024-01-06T01:28:18;4.30;99.90
7684;DHT22;3884;48.616;12.872;2024-01-06T01:30:48;4.30;99.90
7684;DHT22;3884;48.616;12.872;2024-01-06T01:33:15;4.30;99.90
7684;DHT22;3884;48.616;12.872;2024-01-06T01:35:43;4.40;99.90
7684;DHT22;3884;48.616;12.872;2024-01-06T01:38:09;4.40;99.90
7684;DHT22;3884;48.616;12.872;2024-01-06T01:40:37;4.30;99.90
7684;DHT22;3884;48.616;12.872;2024-01-06T01:43:05;4.30;99.90
7684;DHT22;3884;48.616;12.872;2024-01-06T01:45:32;4.30;99.90
7684;DHT22;3884;48.616;12.872;2024-01-06T01:47:59;4.30;99.90
7684;DHT22;3884;48.616;12.872;2024-01-06T01:50:26;4.30;99.90
7684;DHT22;3884;48.616;12.872;2024-01-06T01:52:56;4.30;99.90
7684;DHT22;3884;48.616;12.872;2024-01-06T01:55:24;4.30;99.90
7684;DHT22;3884;48.616;12.872;2024-01-06T01:57:51;4.30;99.90
7684;DHT22;3884;48.616;12.872;2024-01-06T02:00:19;4.30;99.90
7684;DHT22;3884;48.616;12.872;2024-01-06T02:02:46;4.40;99.90
7684;DHT22;3884;48.616;12.872;2024-01-06T02:05:14;4.40;99.90
7684;DHT22;3884;48.616;12.872;2024-01-06T02:07:41;4.50;99.90
7684;DHT22;3884;48.616;12.872;2024-01-06T02:10:08;4.40;99.90
7684;DHT22;3884;48.616;12.872;2024-01-06T02:12:35;4.40;99.90
7684;DHT22;3884;48.616;12.872;2024-01-06T02:15:02;4.40;99.90
7684;DHT22;3884;48.616;12.872;2024-01-06T02:17:31;4.40;99.90
7684;DHT22;3884;48.616;12.872;2024-01-06T02:19:58;4.40;99.90
7684;DHT22;3884;48.616;12.872;2024-01-06T02:22:27;4.40;99.90
7684;DHT22;3884;48.616;12.872;2024-01-06T02:24:54;4.40;99.90
7684;DHT22;3884;48.616;12.872;2024-01-06T02:27:21;4.40;99.90
7684;DHT22;3884;48.616;12.872;2024-01-06T02:29:48;4.40;99.90
7684;DHT22;3884;48.616;12.872;2024-01-06T02:32:15;4.40;99.90
7684;DHT22;3884;48.616;12.872;2024-01-06T02:34:42;4.40;99.90
7684;DHT22;3884;48.616;12.872;2024-01-06T02:37:09;4.40;99.90
7684;DHT22;3884;48.616;12.872;2024-01-06T02:39:38;4.40;99.90
7684;DHT22;3884;48.616;12.872;2024-01-06T02:42:06;4.40;99.90
7684;DHT22;3884;48.616;12.872;2024-01-06T02:44:33;4.50;99.90
7684;DHT22;3884;48.616;12.872;2024-01-06T02:47:00;4.40;99.90
7684;DHT22;3884;48.616;12.872;2024-01-06T02:49:27;4.40;99.90
7684;DHT22;3884;48.616;12.872;2024-01-06T02:51:54;4.50;99.90
7684;DHT22;3884;48.616;12.872;2024-01-06T02:54:21;4.60;99.90
7684;DHT22;3884;48.616;12.872;2024-01-06T02:56:50;4.60;99.90
7684;DHT22;3884;48.616;12.872;2024-01-06T02:59:16;4.60;99.90
7684;DHT22;3884;48.616;12.872;2024-01-06T03:01:44;4.60;99.90
7684;DHT22;3884;48.616;12.872;2024-01-06T03:04:11;4.50;99.90
7684;DHT22;3884;48.616;12.872;2024-01-06T03:06:38;4.50;99.90
7684;DHT22;3884;48.616;12.872;2024-01-06T03:09:06;4.50;99.90
7684;DHT22;3884;48.616;12.872;2024-01-06T03:11:33;4.50;99.90
7684;DHT22;3884;48.616;12.872;2024-01-06T03:14:03;4.50;99.90
7684;DHT22;3884;48.616;12.872;2024-01-06T03:16:29;4.50;99.90
7684;DHT22;3884;48.616;12.872;2024-01-06T03:18:56;4.60;99.90
7684;DHT22;3884;48.616;12.872;2024-01-06T03:21:23;4.60;99.90
7684;DHT22;3884;48.616;12.872;2024-01-06T03:23:52;4.50;99.90
7684;DHT22;3884;48.616;12.872;2024-01-06T03:26:21;4.50;99.90
7684;DHT22;3884;48.616;12.872;2024-01-06T03:28:49;4.50;99.90
7684;DHT22;3884;48.616;12.872;2024-01-06T03:31:25;4.50;99.90
7684;DHT22;3884;48.616;12.872;2024-01-06T03:33:52;4.50;99.90
7684;DHT22;3884;48.616;12.872;2024-01-06T03:36:21;4.40;99.90
7684;DHT22;3884;48.616;12.872;2024-01-06T03:38:48;4.50;99.90
7684;DHT22;3884;48.616;12.872;2024-01-06T03:41:15;4.50;99.90
7684;DHT22;3884;48.616;12.872;2024-01-06T03:43:42;4.40;99.90
7684;DHT22;3884;48.616;12.872;2024-01-06T03:46:09;4.40;99.90
7684;DHT22;3884;48.616;12.872;2024-01-06T03:48:38;4.40;99.90
7684;DHT22;3884;48.616;12.872;2024-01-06T03:51:04;4.40;99.90
7684;DHT22;3884;48.616;12.872;2024-01-06T03:53:32;4.50;99.90
7684;DHT22;3884;48.616;12.872;2024-01-06T03:55:59;4.40;99.90
7684;DHT22;3884;48.616;12.872;2024-01-06T03:58:26;4.50;99.90
7684;DHT22;3884;48.616;12.872;2024-01-06T04:00:53;4.50;99.90
7684;DHT22;3884;48.616;12.872;2024-01-06T04:03:20;4.40;99.90
7684;DHT22;3884;48.616;12.872;2024-01-06T04:05:48;4.40;99.90
7684;DHT22;3884;48.616;12.872;2024-01-06T04:08:17;4.40;99.90
7684;DHT22;3884;48.616;12.872;2024-01-06T04:10:45;4.50;99.90
7684;DHT22;3884;48.616;12.872;2024-01-06T04:13:12;4.50;99.90
7684;DHT22;3884;48.616;12.872;2024-01-06T04:15:39;4.40;99.90
7684;DHT22;3884;48.616;12.872;2024-01-06T04:18:06;4.40;99.90
7684;DHT22;3884;48.616;12.872;2024-01-06T04:20:35;4.40;99.90
7684;DHT22;3884;48.616;12.872;2024-01-06T04:23:03;4.40;99.90
7684;DHT22;3884;48.616;12.872;2024-01-06T04:25:30;4.40;99.90
7684;DHT22;3884;48.616;12.872;2024-01-06T04:27:57;4.40;99.90
7684;DHT22;3884;48.616;12.872;2024-01-06T04:30:25;4.40;99.90
7684;DHT22;3884;48.616;12.872;2024-01-06T04:32:52;4.40;99.90
7684;DHT22;3884;48.616;12.872;2024-01-06T04:35:20;4.40;99.90
7684;DHT22;3884;48.616;12.872;2024-01-06T04:37:47;4.50;99.90
7684;DHT22;3884;48.616;12.872;2024-01-06T04:40:16;4.50;99.90
7684;DHT22;3884;48.616;12.872;2024-01-06T04:42:44;4.60;99.90
7684;DHT22;3884;48.616;12.872;2024-01-06T04:45:11;4.50;99.90
7684;DHT22;3884;48.616;12.872;2024-01-06T04:47:38;4.60;99.90
7684;DHT22;3884;48.616;12.872;2024-01-06T04:50:06;4.60;99.90
7684;DHT22;3884;48.616;12.872;2024-01-06T04:52:32;4.60;99.90
7684;DHT22;3884;48.616;12.872;2024-01-06T04:54:59;4.60;99.90
7684;DHT22;3884;48.616;12.872;2024-01-06T04:57:30;4.60;99.90
7684;DHT22;3884;48.616;12.872;2024-01-06T04:59:57;4.60;99.90
7684;DHT22;3884;48.616;12.872;2024-01-06T05:02:25;4.50;99.90
7684;DHT22;3884;48.616;12.872;2024-01-06T05:04:52;4.60;99.90
7684;DHT22;3884;48.616;12.872;2024-01-06T05:07:19;4.60;99.90
7684;DHT22;3884;48.616;12.872;2024-01-06T05:09:46;4.60;99.90
7684;DHT22;3884;48.616;12.872;2024-01-06T05:12:13;4.60;99.90
7684;DHT22;3884;48.616;12.872;2024-01-06T05:14:42;4.60;99.90
7684;DHT22;3884;48.616;12.872;2024-01-06T05:17:08;4.60;99.90
7684;DHT22;3884;48.616;12.872;2024-01-06T05:19:36;4.60;99.90
7684;DHT22;3884;48.616;12.872;2024-01-06T05:22:03;4.50;99.90
7684;DHT22;3884;48.616;12.872;2024-01-06T05:24:30;4.60;99.90
7684;DHT22;3884;48.616;12.872;2024-01-06T05:26:57;4.60;99.90
7684;DHT22;3884;48.616;12.872;2024-01-06T05:29:25;4.60;99.90
7684;DHT22;3884;48.616;12.872;2024-01-06T05:31:53;4.60;99.90
7684;DHT22;3884;48.616;12.872;2024-01-06T05:34:21;4.70;99.90
7684;DHT22;3884;48.616;12.872;2024-01-06T05:36:48;4.70;99.90
7684;DHT22;3884;48.616;12.872;2024-01-06T05:39:15;4.70;99.90
7684;DHT22;3884;48.616;12.872;2024-01-06T05:41:42;4.70;99.90
7684;DHT22;3884;48.616;12.872;2024-01-06T05:44:09;4.70;99.90
7684;DHT22;3884;48.616;12.872;2024-01-06T05:46:36;4.60;99.90
7684;DHT22;3884;48.616;12.872;2024-01-06T05:49:06;4.60;99.90
7684;DHT22;3884;48.616;12.872;2024-01-06T05:51:34;4.60;99.90
7684;DHT22;3884;48.616;12.872;2024-01-06T05:54:01;4.60;99.90
7684;DHT22;3884;48.616;12.872;2024-01-06T05:56:28;4.60;99.90
7684;DHT22;3884;48.616;12.872;2024-01-06T05:58:55;4.70;99.90
7684;DHT22;3884;48.616;12.872;2024-01-06T06:01:22;4.70;99.90
7684;DHT22;3884;48.616;12.872;2024-01-06T06:03:50;4.80;99.90
7684;DHT22;3884;48.616;12.872;2024-01-06T06:06:19;4.80;99.90
7684;DHT22;3884;48.616;12.872;2024-01-06T06:08:46;4.70;99.90
7684;DHT22;3884;48.616;12.872;2024-01-06T06:11:14;4.70;99.90
7684;DHT22;3884;48.616;12.872;2024-01-06T06:13:41;4.80;99.90
7684;DHT22;3884;48.616;12.872;2024-01-06T06:16:09;4.80;99.90
7684;DHT22;3884;48.616;12.872;2024-01-06T06:18:37;4.80;99.90
7684;DHT22;3884;48.616;12.872;2024-01-06T06:21:05;4.80;99.90
7684;DHT22;3884;48.616;12.872;2024-01-06T06:23:34;4.80;99.90
7684;DHT22;3884;48.616;12.872;2024-01-06T06:26:09;4.80;99.90
7684;DHT22;3884;48.616;12.872;2024-01-06T06:28:37;4.90;99.90
7684;DHT22;3884;48.616;12.872;2024-01-06T06:31:04;4.90;99.90
7684;DHT22;3884;48.616;12.872;2024-01-06T06:33:31;4.80;99.90
7684;DHT22;3884;48.616;12.872;2024-01-06T06:35:58;4.80;99.90
7684;DHT22;3884;48.616;12.872;2024-01-06T06:38:25;4.80;99.90
7684;DHT22;3884;48.616;12.872;2024-01-06T06:40:54;4.80;99.90
7684;DHT22;3884;48.616;12.872;2024-01-06T06:43:34;4.80;99.90
7684;DHT22;3884;48.616;12.872;2024-01-06T06:46:03;4.80;99.90
7684;DHT22;3884;48.616;12.872;2024-01-06T06:48:44;4.80;99.90
7684;DHT22;3884;48.616;12.872;2024-01-06T06:51:18;4.90;99.90
7684;DHT22;3884;48.616;12.872;2024-01-06T06:53:50;4.80;99.90
7684;DHT22;3884;48.616;12.872;2024-01-06T06:56:19;4.80;99.90
7684;DHT22;3884;48.616;12.872;2024-01-06T06:59:00;4.80;99.90
7684;DHT22;3884;48.616;12.872;2024-01-06T07:01:34;4.90;99.90
7684;DHT22;3884;48.616;12.872;2024-01-06T07:04:01;4.90;99.90
7684;DHT22;3884;48.616;12.872;2024-01-06T07:06:29;4.90;99.90
7684;DHT22;3884;48.616;12.872;2024-01-06T07:09:10;4.90;99.90
7684;DHT22;3884;48.616;12.872;2024-01-06T07:11:53;4.90;99.90
7684;DHT22;3884;48.616;12.872;2024-01-06T07:14:34;4.90;99.90
7684;DHT22;3884;48.616;12.872;2024-01-06T07:17:02;4.90;99.90
7684;DHT22;3884;48.616;12.872;2024-01-06T07:19:44;4.80;99.90
7684;DHT22;3884;48.616;12.872;2024-01-06T07:22:25;4.90;99.90
7684;DHT22;3884;48.616;12.872;2024-01-06T07:24:52;4.90;99.90
7684;DHT22;3884;48.616;12.872;2024-01-06T07:27:51;4.90;99.90
7684;DHT22;3884;48.616;12.872;2024-01-06T07:30:18;4.90;99.90
7684;DHT22;3884;48.616;12.872;2024-01-06T07:32:59;4.90;99.90
7684;DHT22;3884;48.616;12.872;2024-01-06T07:35:40;5.00;99.90
7684;DHT22;3884;48.616;12.872;2024-01-06T07:38:16;4.90;99.90
7684;DHT22;3884;48.616;12.872;2024-01-06T07:40:56;4.90;99.90
7684;DHT22;3884;48.616;12.872;2024-01-06T07:43:47;4.90;99.90
7684;DHT22;3884;48.616;12.872;2024-01-06T07:46:30;4.90;99.90
7684;DHT22;3884;48.616;12.872;2024-01-06T07:49:17;5.00;99.90
7684;DHT22;3884;48.616;12.872;2024-01-06T07:52:05;4.90;99.90
7684;DHT22;3884;48.616;12.872;2024-01-06T07:54:49;4.90;99.90
7684;DHT22;3884;48.616;12.872;2024-01-06T07:57:29;4.80;99.90
7684;DHT22;3884;48.616;12.872;2024-01-06T08:19:05;5.00;99.90
7684;DHT22;3884;48.616;12.872;2024-01-06T08:21:49;5.10;99.90
7684;DHT22;3884;48.616;12.872;2024-01-06T08:24:31;5.10;99.90
7684;DHT22;3884;48.616;12.872;2024-01-06T08:27:12;5.00;99.90
7684;DHT22;3884;48.616;12.872;2024-01-06T08:29:53;5.00;99.90
7684;DHT22;3884;48.616;12.872;2024-01-06T08:32:34;5.00;99.90
7684;DHT22;3884;48.616;12.872;2024-01-06T08:44:42;5.10;99.90
7684;DHT22;3884;48.616;12.872;2024-01-06T08:47:20;5.20;99.90
7684;DHT22;3884;48.616;12.872;2024-01-06T08:50:02;5.00;99.90
7684;DHT22;3884;48.616;12.872;2024-01-06T08:52:33;5.10;99.90
7684;DHT22;3884;48.616;12.872;2024-01-06T08:55:14;5.10;99.90
7684;DHT22;3884;48.616;12.872;2024-01-06T08:57:56;5.10;99.90
7684;DHT22;3884;48.616;12.872;2024-01-06T09:10:14;5.10;99.90
7684;DHT22;3884;48.616;12.872;2024-01-06T09:12:41;5.10;99.90
7684;DHT22;3884;48.616;12.872;2024-01-06T09:15:12;5.10;99.90
7684;DHT22;3884;48.616;12.872;2024-01-06T09:17:53;5.10;99.90
7684;DHT22;3884;48.616;12.872;2024-01-06T09:20:33;5.10;99.90
7684;DHT22;3884;48.616;12.872;2024-01-06T09:23:15;5.10;99.90
7684;DHT22;3884;48.616;12.872;2024-01-06T09:26:23;5.10;99.90
7684;DHT22;3884;48.616;12.872;2024-01-06T09:28:52;5.10;99.90
7684;DHT22;3884;48.616;12.872;2024-01-06T09:31:20;5.10;99.90
7684;DHT22;3884;48.616;12.872;2024-01-06T09:33:49;5.10;99.90
7684;DHT22;3884;48.616;12.872;2024-01-06T09:36:31;5.20;99.90
7684;DHT22;3884;48.616;12.872;2024-01-06T09:39:12;5.10;99.90
7684;DHT22;3884;48.616;12.872;2024-01-06T09:42:10;5.10;99.90
7684;DHT22;3884;48.616;12.872;2024-01-06T09:44:51;5.10;99.90
7684;DHT22;3884;48.616;12.872;2024-01-06T09:47:51;5.10;99.90
7684;DHT22;3884;48.616;12.872;2024-01-06T09:51:02;5.10;99.90
7684;DHT22;3884;48.616;12.872;2024-01-06T09:53:48;5.10;99.90
7684;DHT22;3884;48.616;12.872;2024-01-06T09:56:16;5.10;99.90
7684;DHT22;3884;48.616;12.872;2024-01-06T09:59:18;5.20;99.90
7684;DHT22;3884;48.616;12.872;2024-01-06T10:01:46;5.10;99.90
7684;DHT22;3884;48.616;12.872;2024-01-06T10:04:15;5.10;99.90
7684;DHT22;3884;48.616;12.872;2024-01-06T10:06:44;5.20;99.90
7684;DHT22;3884;48.616;12.872;2024-01-06T10:09:12;5.20;99.90
7684;DHT22;3884;48.616;12.872;2024-01-06T10:11:58;5.10;99.90
7684;DHT22;3884;48.616;12.872;2024-01-06T10:14:50;5.10;99.90
7684;DHT22;3884;48.616;12.872;2024-01-06T10:17:23;5.10;99.90
7684;DHT22;3884;48.616;12.872;2024-01-06T10:20:00;5.10;99.90
7684;DHT22;3884;48.616;12.872;2024-01-06T10:22:42;5.10;99.90
7684;DHT22;3884;48.616;12.872;2024-01-06T10:25:10;5.00;99.90
7684;DHT22;3884;48.616;12.872;2024-01-06T10:27:40;5.10;99.90
7684;DHT22;3884;48.616;12.872;2024-01-06T10:30:25;5.10;99.90
7684;DHT22;3884;48.616;12.872;2024-01-06T10:32:52;5.10;99.90
7684;DHT22;3884;48.616;12.872;2024-01-06T10:35:19;5.10;99.90
7684;DHT22;3884;48.616;12.872;2024-01-06T10:38:17;5.10;99.90
7684;DHT22;3884;48.616;12.872;2024-01-06T10:40:56;5.10;99.90
7684;DHT22;3884;48.616;12.872;2024-01-06T10:43:25;5.10;99.90
7684;DHT22;3884;48.616;12.872;2024-01-06T10:45:55;5.10;99.90
7684;DHT22;3884;48.616;12.872;2024-01-06T10:48:25;5.10;99.90
7684;DHT22;3884;48.616;12.872;2024-01-06T10:50:52;5.00;99.90
7684;DHT22;3884;48.616;12.872;2024-01-06T10:53:22;5.10;99.90
7684;DHT22;3884;48.616;12.872;2024-01-06T10:55:52;5.10;99.90
7684;DHT22;3884;48.616;12.872;2024-01-06T10:58:19;5.10;99.90
7684;DHT22;3884;48.616;12.872;2024-01-06T11:00:47;5.00;99.90
7684;DHT22;3884;48.616;12.872;2024-01-06T11:03:14;5.10;99.90
7684;DHT22;3884;48.616;12.872;2024-01-06T11:05:42;5.10;99.90
7684;DHT22;3884;48.616;12.872;2024-01-06T11:15:04;5.20;99.90
7684;DHT22;3884;48.616;12.872;2024-01-06T11:17:54;5.20;99.90
7684;DHT22;3884;48.616;12.872;2024-01-06T11:20:22;5.10;99.90
7684;DHT22;3884;48.616;12.872;2024-01-06T11:23:18;5.20;99.90
7684;DHT22;3884;48.616;12.872;2024-01-06T11:25:46;5.20;99.90
7684;DHT22;3884;48.616;12.872;2024-01-06T11:28:18;5.20;99.90
7684;DHT22;3884;48.616;12.872;2024-01-06T11:31:25;5.20;99.90
7684;DHT22;3884;48.616;12.872;2024-01-06T11:33:55;5.20;99.90
7684;DHT22;3884;48.616;12.872;2024-01-06T11:36:23;5.20;99.90
7684;DHT22;3884;48.616;12.872;2024-01-06T11:39:05;5.00;99.90
7684;DHT22;3884;48.616;12.872;2024-01-06T11:41:50;5.20;99.90
7684;DHT22;3884;48.616;12.872;2024-01-06T11:44:28;5.30;99.90
7684;DHT22;3884;48.616;12.872;2024-01-06T11:46:57;5.20;99.90
7684;DHT22;3884;48.616;12.872;2024-01-06T11:49:26;5.20;99.90
7684;DHT22;3884;48.616;12.872;2024-01-06T11:51:54;5.20;99.90
7684;DHT22;3884;48.616;12.872;2024-01-06T11:54:21;5.20;99.90
7684;DHT22;3884;48.616;12.872;2024-01-06T11:56:48;5.30;99.90
7684;DHT22;3884;48.616;12.872;2024-01-06T11:59:21;5.30;99.90
7684;DHT22;3884;48.616;12.872;2024-01-06T12:01:48;5.20;99.90
7684;DHT22;3884;48.616;12.872;2024-01-06T12:04:50;5.20;99.90
7684;DHT22;3884;48.616;12.872;2024-01-06T12:07:18;5.30;99.90
7684;DHT22;3884;48.616;12.872;2024-01-06T12:09:45;5.30;99.90
7684;DHT22;3884;48.616;12.872;2024-01-06T12:12:15;5.30;99.90
7684;DHT22;3884;48.616;12.872;2024-01-06T12:14:42;5.30;99.90
7684;DHT22;3884;48.616;12.872;2024-01-06T12:17:09;5.30;99.90
7684;DHT22;3884;48.616;12.872;2024-01-06T12:19:39;5.30;99.90
7684;DHT22;3884;48.616;12.872;2024-01-06T12:22:10;5.30;99.90
7684;DHT22;3884;48.616;12.872;2024-01-06T12:24:39;5.30;99.90
7684;DHT22;3884;48.616;12.872;2024-01-06T12:27:07;5.30;99.90
7684;DHT22;3884;48.616;12.872;2024-01-06T12:29:38;5.30;99.90
7684;DHT22;3884;48.616;12.872;2024-01-06T12:32:06;5.30;99.90
7684;DHT22;3884;48.616;12.872;2024-01-06T12:34:33;5.30;99.90
7684;DHT22;3884;48.616;12.872;2024-01-06T12:37:00;5.30;99.90
7684;DHT22;3884;48.616;12.872;2024-01-06T12:39:44;5.20;99.90
7684;DHT22;3884;48.616;12.872;2024-01-06T12:42:15;5.20;99.90
7684;DHT22;3884;48.616;12.872;2024-01-06T12:44:49;5.20;99.90
7684;DHT22;3884;48.616;12.872;2024-01-06T12:47:16;5.20;99.90
7684;DHT22;3884;48.616;12.872;2024-01-06T12:49:44;5.20;99.90
7684;DHT22;3884;48.616;12.872;2024-01-06T12:52:11;5.20;99.90
7684;DHT22;3884;48.616;12.872;2024-01-06T12:54:39;5.20;99.90
7684;DHT22;3884;48.616;12.872;2024-01-06T12:57:15;5.20;99.90
7684;DHT22;3884;48.616;12.872;2024-01-06T12:59:43;5.30;99.90
7684;DHT22;3884;48.616;12.872;2024-01-06T13:02:10;5.20;99.90
7684;DHT22;3884;48.616;12.872;2024-01-06T13:04:37;5.20;99.90
7684;DHT22;3884;48.616;12.872;2024-01-06T13:07:04;5.20;99.90
7684;DHT22;3884;48.616;12.872;2024-01-06T13:09:31;5.20;99.90
7684;DHT22;3884;48.616;12.872;2024-01-06T13:11:59;5.20;99.90
7684;DHT22;3884;48.616;12.872;2024-01-06T13:14:28;5.20;99.90
7684;DHT22;3884;48.616;12.872;2024-01-06T13:16:57;5.20;99.90
7684;DHT22;3884;48.616;12.872;2024-01-06T13:19:25;5.20;99.90
7684;DHT22;3884;48.616;12.872;2024-01-06T13:21:56;5.20;99.90
7684;DHT22;3884;48.616;12.872;2024-01-06T13:24:24;5.20;99.90
7684;DHT22;3884;48.616;12.872;2024-01-06T13:26:51;5.10;99.90
7684;DHT22;3884;48.616;12.872;2024-01-06T13:29:19;5.10;99.90
7684;DHT22;3884;48.616;12.872;2024-01-06T13:31:47;5.10;99.90
7684;DHT22;3884;48.616;12.872;2024-01-06T13:34:15;5.10;99.90
7684;DHT22;3884;48.616;12.872;2024-01-06T13:36:43;5.10;99.90
7684;DHT22;3884;48.616;12.872;2024-01-06T13:39:10;5.10;99.90
7684;DHT22;3884;48.616;12.872;2024-01-06T13:41:42;5.10;99.90
7684;DHT22;3884;48.616;12.872;2024-01-06T13:44:09;5.10;99.90
7684;DHT22;3884;48.616;12.872;2024-01-06T13:46:44;5.10;99.90
7684;DHT22;3884;48.616;12.872;2024-01-06T13:49:18;5.10;99.90
7684;DHT22;3884;48.616;12.872;2024-01-06T13:51:45;5.10;99.90
7684;DHT22;3884;48.616;12.872;2024-01-06T13:54:12;5.10;99.90
7684;DHT22;3884;48.616;12.872;2024-01-06T13:56:39;5.10;99.90
7684;DHT22;3884;48.616;12.872;2024-01-06T13:59:07;5.10;99.90
7684;DHT22;3884;48.616;12.872;2024-01-06T14:01:48;5.10;99.90
7684;DHT22;3884;48.616;12.872;2024-01-06T14:04:16;5.00;99.90
7684;DHT22;3884;48.616;12.872;2024-01-06T14:06:43;5.00;99.90
7684;DHT22;3884;48.616;12.872;2024-01-06T14:09:13;5.00;99.90
7684;DHT22;3884;48.616;12.872;2024-01-06T14:11:40;5.00;99.90
7684;DHT22;3884;48.616;12.872;2024-01-06T14:14:07;5.00;99.90
7684;DHT22;3884;48.616;12.872;2024-01-06T14:16:34;5.00;99.90
7684;DHT22;3884;48.616;12.872;2024-01-06T14:19:02;5.00;99.90
7684;DHT22;3884;48.616;12.872;2024-01-06T14:21:30;4.90;99.90
7684;DHT22;3884;48.616;12.872;2024-01-06T14:23:57;4.90;99.90
7684;DHT22;3884;48.616;12.872;2024-01-06T14:26:25;5.00;99.90
7684;DHT22;3884;48.616;12.872;2024-01-06T14:28:52;4.90;99.90
7684;DHT22;3884;48.616;12.872;2024-01-06T14:31:19;4.90;99.90
7684;DHT22;3884;48.616;12.872;2024-01-06T14:33:46;4.80;99.90
7684;DHT22;3884;48.616;12.872;2024-01-06T14:36:13;4.80;99.90
7684;DHT22;3884;48.616;12.872;2024-01-06T14:38:42;4.70;99.90
7684;DHT22;3884;48.616;12.872;2024-01-06T14:41:09;4.80;99.90
7684;DHT22;3884;48.616;12.872;2024-01-06T14:43:36;4.80;99.90
7684;DHT22;3884;48.616;12.872;2024-01-06T14:46:03;4.70;99.90
7684;DHT22;3884;48.616;12.872;2024-01-06T14:48:31;4.70;99.90
7684;DHT22;3884;48.616;12.872;2024-01-06T14:50:58;4.70;99.90
7684;DHT22;3884;48.616;12.872;2024-01-06T14:53:28;4.60;99.90
7684;DHT22;3884;48.616;12.872;2024-01-06T14:55:56;4.70;99.90
7684;DHT22;3884;48.616;12.872;2024-01-06T14:58:23;4.60;99.90
7684;DHT22;3884;48.616;12.872;2024-01-06T15:00:50;4.60;99.90
7684;DHT22;3884;48.616;12.872;2024-01-06T15:03:17;4.60;99.90
7684;DHT22;3884;48.616;12.872;2024-01-06T15:05:46;4.60;99.90
7684;DHT22;3884;48.616;12.872;2024-01-06T15:08:12;4.60;99.90
7684;DHT22;3884;48.616;12.872;2024-01-06T15:10:39;4.70;99.90
7684;DHT22;3884;48.616;12.872;2024-01-06T15:13:08;4.60;99.90
7684;DHT22;3884;48.616;12.872;2024-01-06T15:15:35;4.60;99.90
7684;DHT22;3884;48.616;12.872;2024-01-06T15:18:02;4.60;99.90
7684;DHT22;3884;48.616;12.872;2024-01-06T15:20:29;4.60;99.90
7684;DHT22;3884;48.616;12.872;2024-01-06T15:22:56;4.50;99.90
7684;DHT22;3884;48.616;12.872;2024-01-06T15:25:23;4.50;99.90
7684;DHT22;3884;48.616;12.872;2024-01-06T15:27:49;4.50;99.90
7684;DHT22;3884;48.616;12.872;2024-01-06T15:30:18;4.50;99.90
7684;DHT22;3884;48.616;12.872;2024-01-06T15:32:46;4.50;99.90
7684;DHT22;3884;48.616;12.872;2024-01-06T15:35:14;4.50;99.90
7684;DHT22;3884;48.616;12.872;2024-01-06T15:37:41;4.50;99.90
7684;DHT22;3884;48.616;12.872;2024-01-06T15:40:08;4.50;99.90
7684;DHT22;3884;48.616;12.872;2024-01-06T15:42:36;4.50;99.90
7684;DHT22;3884;48.616;12.872;2024-01-06T15:45:03;4.50;99.90
7684;DHT22;3884;48.616;12.872;2024-01-06T15:47:31;4.50;99.90
7684;DHT22;3884;48.616;12.872;2024-01-06T15:49:59;4.50;99.90
7684;DHT22;3884;48.616;12.872;2024-01-06T15:52:26;4.50;99.90
7684;DHT22;3884;48.616;12.872;2024-01-06T15:54:52;4.50;99.90
7684;DHT22;3884;48.616;12.872;2024-01-06T15:57:19;4.50;99.90
7684;DHT22;3884;48.616;12.872;2024-01-06T15:59:46;4.50;99.90
7684;DHT22;3884;48.616;12.872;2024-01-06T16:02:13;4.40;99.90
7684;DHT22;3884;48.616;12.872;2024-01-06T16:04:42;4.40;99.90
7684;DHT22;3884;48.616;12.872;2024-01-06T16:07:08;4.40;99.90
7684;DHT22;3884;48.616;12.872;2024-01-06T16:09:35;4.40;99.90
7684;DHT22;3884;48.616;12.872;2024-01-06T16:12:02;4.50;99.90
7684;DHT22;3884;48.616;12.872;2024-01-06T16:14:31;4.40;99.90
7684;DHT22;3884;48.616;12.872;2024-01-06T16:16:58;4.50;99.90
7684;DHT22;3884;48.616;12.872;2024-01-06T16:19:25;4.50;99.90
7684;DHT22;3884;48.616;12.872;2024-01-06T16:21:54;4.40;99.90
7684;DHT22;3884;48.616;12.872;2024-01-06T16:24:21;4.50;99.90
7684;DHT22;3884;48.616;12.872;2024-01-06T16:26:51;4.40;99.90
7684;DHT22;3884;48.616;12.872;2024-01-06T16:29:18;4.50;99.90
7684;DHT22;3884;48.616;12.872;2024-01-06T16:31:45;4.50;99.90
7684;DHT22;3884;48.616;12.872;2024-01-06T16:34:12;4.40;99.90
7684;DHT22;3884;48.616;12.872;2024-01-06T16:36:39;4.40;99.90
7684;DHT22;3884;48.616;12.872;2024-01-06T16:39:08;4.40;99.90
7684;DHT22;3884;48.616;12.872;2024-01-06T16:41:36;4.40;99.90
7684;DHT22;3884;48.616;12.872;2024-01-06T16:44:03;4.40;99.90
7684;DHT22;3884;48.616;12.872;2024-01-06T16:46:31;4.30;99.90
7684;DHT22;3884;48.616;12.872;2024-01-06T16:48:57;4.40;99.90
7684;DHT22;3884;48.616;12.872;2024-01-06T16:51:24;4.40;99.90
7684;DHT22;3884;48.616;12.872;2024-01-06T16:53:51;4.30;99.90
7684;DHT22;3884;48.616;12.872;2024-01-06T16:56:19;4.30;99.90
7684;DHT22;3884;48.616;12.872;2024-01-06T16:58:46;4.20;99.90
7684;DHT22;3884;48.616;12.872;2024-01-06T17:01:13;4.20;99.90
7684;DHT22;3884;48.616;12.872;2024-01-06T17:03:41;4.30;99.90
7684;DHT22;3884;48.616;12.872;2024-01-06T17:06:08;4.30;99.90
7684;DHT22;3884;48.616;12.872;2024-01-06T17:08:37;4.30;99.90